createdAt,value
2018-07-16T00:00:05.084Z,97.61
2018-07-16T00:01:05.325Z,97.90
2018-07-16T00:02:05.570Z,97.52
2018-07-16T00:03:05.816Z,97.14
2018-07-16T00:04:06.061Z,97.23
2018-07-16T00:05:06.303Z,97.14
2018-07-16T00:06:06.548Z,95.79
2018-07-16T00:07:06.790Z,95.98
2018-07-16T00:08:07.033Z,96.47
2018-07-16T00:09:07.276Z,95.41
2018-07-16T00:10:07.520Z,95.21
2018-07-16T00:11:07.761Z,94.64
2018-07-16T00:12:08.003Z,94.88
2018-07-16T00:13:08.247Z,95.26
2018-07-16T00:14:08.491Z,95.26
2018-07-16T00:15:08.733Z,95.17
2018-07-16T00:16:08.979Z,95.12
2018-07-16T00:17:09.222Z,95.65
2018-07-16T00:18:09.468Z,95.21
2018-07-16T00:19:09.711Z,95.31
2018-07-16T00:20:09.955Z,95.75
2018-07-16T00:21:10.200Z,94.93
2018-07-16T00:22:10.445Z,95.70
2018-07-16T00:23:10.687Z,95.51
2018-07-16T00:24:10.931Z,95.51
2018-07-16T00:25:11.174Z,95.60
2018-07-16T00:26:11.416Z,95.89
2018-07-16T00:27:11.662Z,95.60
2018-07-16T00:28:11.905Z,95.31
2018-07-16T00:29:12.148Z,95.79
2018-07-16T00:30:12.392Z,95.31
2018-07-16T00:31:12.636Z,96.18
2018-07-16T00:32:12.879Z,96.08
2018-07-16T00:33:13.124Z,95.70
2018-07-16T00:34:13.368Z,96.85
2018-07-16T00:35:13.612Z,97.04
2018-07-16T00:36:13.856Z,96.75
2018-07-16T00:37:14.097Z,97.04
2018-07-16T00:38:14.342Z,96.75
2018-07-16T00:39:14.585Z,96.85
2018-07-16T00:40:14.828Z,97.09
2018-07-16T00:41:15.071Z,97.23
2018-07-16T00:42:15.316Z,96.99
2018-07-16T00:43:15.562Z,96.32
2018-07-16T00:44:15.854Z,96.03
2018-07-16T00:45:16.049Z,96.89
2018-07-16T00:46:16.291Z,97.28
2018-07-16T00:47:16.536Z,97.38
2018-07-16T00:48:16.780Z,96.80
2018-07-16T00:49:17.024Z,97.23
2018-07-16T00:50:17.266Z,96.89
2018-07-16T00:51:17.511Z,96.80
2018-07-16T00:52:17.755Z,97.09
2018-07-16T00:53:17.998Z,96.75
2018-07-16T00:54:18.242Z,97.14
2018-07-16T00:55:18.490Z,96.70
2018-07-16T00:56:18.761Z,95.94
2018-07-16T00:57:18.969Z,95.56
2018-07-16T00:58:19.212Z,95.75
2018-07-16T00:59:19.456Z,96.51
2018-07-16T01:00:19.717Z,95.65
2018-07-16T01:01:19.943Z,95.94
2018-07-16T01:02:20.187Z,96.80
2018-07-16T01:03:20.431Z,96.80
2018-07-16T01:04:20.673Z,96.80
2018-07-16T01:05:20.916Z,97.28
2018-07-16T01:06:21.161Z,97.38
2018-07-16T01:07:21.403Z,96.70
2018-07-16T01:08:21.647Z,97.23
2018-07-16T01:09:21.892Z,97.61
2018-07-16T01:10:22.136Z,97.90
2018-07-16T01:11:22.378Z,97.90
2018-07-16T01:12:22.621Z,97.90
2018-07-16T01:13:22.865Z,98.00
2018-07-16T01:14:23.108Z,97.42
2018-07-16T01:15:23.351Z,97.71
2018-07-16T01:16:23.595Z,97.90
2018-07-16T01:17:23.839Z,97.61
2018-07-16T01:18:24.089Z,97.71
2018-07-16T01:19:24.330Z,97.80
2018-07-16T01:20:24.573Z,97.61
2018-07-16T01:21:24.815Z,97.71
2018-07-16T01:22:25.059Z,97.61
2018-07-16T01:23:25.302Z,97.52
2018-07-16T01:24:25.548Z,97.61
2018-07-16T01:25:25.791Z,97.61
2018-07-16T01:26:26.035Z,96.75
2018-07-16T01:27:26.278Z,96.94
2018-07-16T01:28:26.522Z,96.22
2018-07-16T01:29:26.765Z,96.66
2018-07-16T01:30:27.010Z,96.37
2018-07-16T01:31:27.251Z,96.32
2018-07-16T01:32:27.496Z,97.04
2018-07-16T01:33:27.739Z,97.52
2018-07-16T01:34:27.980Z,98.38
2018-07-16T01:35:28.225Z,97.80
2018-07-16T01:36:28.469Z,98.38
2018-07-16T01:37:28.716Z,98.38
2018-07-16T01:38:28.958Z,98.19
2018-07-16T01:39:29.201Z,98.38
2018-07-16T01:40:29.444Z,98.43
2018-07-16T01:41:29.689Z,98.71
2018-07-16T01:42:29.931Z,98.43
2018-07-16T01:43:30.175Z,98.24
2018-07-16T01:44:30.416Z,97.95
2018-07-16T01:45:30.660Z,98.24
2018-07-16T01:46:30.901Z,98.81
2018-07-16T01:47:31.146Z,99.00
2018-07-16T01:48:31.390Z,98.91
2018-07-16T01:49:31.633Z,98.81
2018-07-16T01:50:31.876Z,99.19
2018-07-16T01:51:32.120Z,99.00
2018-07-16T01:52:32.362Z,98.81
2018-07-16T01:53:32.604Z,98.24
2018-07-16T01:54:32.847Z,99.00
2018-07-16T01:55:33.088Z,98.33
2018-07-16T01:56:33.333Z,98.33
2018-07-16T01:57:33.575Z,98.52
2018-07-16T01:58:33.819Z,98.33
2018-07-16T01:59:34.062Z,98.71
2018-07-16T02:00:34.301Z,98.33
2018-07-16T02:01:34.549Z,99.00
2018-07-16T02:02:34.790Z,98.33
2018-07-16T02:03:35.032Z,98.43
2018-07-16T02:04:35.276Z,98.05
2018-07-16T02:05:35.518Z,98.71
2018-07-16T02:06:35.762Z,98.91
2018-07-16T02:07:36.005Z,99.29
2018-07-16T02:08:36.246Z,99.19
2018-07-16T02:09:36.490Z,99.00
2018-07-16T02:10:36.733Z,98.57
2018-07-16T02:11:36.976Z,98.71
2018-07-16T02:12:37.220Z,98.47
2018-07-16T02:13:37.464Z,98.38
2018-07-16T02:14:37.705Z,98.57
2018-07-16T02:15:37.948Z,98.28
2018-07-16T02:16:38.192Z,98.10
2018-07-16T02:17:38.433Z,98.38
2018-07-16T02:18:38.699Z,98.38
2018-07-16T02:19:38.918Z,98.38
2018-07-16T02:20:39.160Z,98.19
2018-07-16T02:21:39.403Z,98.38
2018-07-16T02:22:39.649Z,98.10
2018-07-16T02:23:39.891Z,98.19
2018-07-16T02:24:40.142Z,98.00
2018-07-16T02:25:40.379Z,98.10
2018-07-16T02:26:40.624Z,98.43
2018-07-16T02:27:40.866Z,98.52
2018-07-16T02:28:41.108Z,98.43
2018-07-16T02:29:41.351Z,98.33
2018-07-16T02:30:41.595Z,98.52
2018-07-16T02:31:41.839Z,98.33
2018-07-16T02:32:42.083Z,99.24
2018-07-16T02:33:42.324Z,98.96
2018-07-16T02:34:42.568Z,98.00
2018-07-16T02:35:42.815Z,97.71
2018-07-16T02:36:43.053Z,97.90
2018-07-16T02:37:43.297Z,97.61
2018-07-16T02:38:43.541Z,97.80
2018-07-16T02:39:43.781Z,97.80
2018-07-16T02:40:44.026Z,97.90
2018-07-16T02:41:44.267Z,98.00
2018-07-16T02:42:44.509Z,97.90
2018-07-16T02:43:44.751Z,97.90
2018-07-16T02:44:44.995Z,98.19
2018-07-16T02:45:45.236Z,97.90
2018-07-16T02:46:45.481Z,98.28
2018-07-16T02:47:45.722Z,97.95
2018-07-16T02:48:45.964Z,98.14
2018-07-16T02:49:46.208Z,98.24
2018-07-16T02:50:46.453Z,98.24
2018-07-16T02:51:46.695Z,98.24
2018-07-16T02:52:46.938Z,98.71
2018-07-16T02:53:47.181Z,98.33
2018-07-16T02:54:47.424Z,98.24
2018-07-16T02:55:47.668Z,98.14
2018-07-16T02:56:47.912Z,97.71
2018-07-16T02:57:48.155Z,98.14
2018-07-16T02:58:48.398Z,97.80
2018-07-16T02:59:48.642Z,97.90
2018-07-16T03:00:48.888Z,98.09
2018-07-16T03:01:49.128Z,98.09
2018-07-16T03:02:49.374Z,97.61
2018-07-16T03:03:49.616Z,98.09
2018-07-16T03:04:49.858Z,98.19
2018-07-16T03:05:50.101Z,98.09
2018-07-16T03:06:50.341Z,98.19
2018-07-16T03:07:50.590Z,97.61
2018-07-16T03:08:50.827Z,97.71
2018-07-16T03:09:51.072Z,98.09
2018-07-16T03:10:51.317Z,97.52
2018-07-16T03:11:51.565Z,98.28
2018-07-16T03:12:51.800Z,97.52
2018-07-16T03:13:52.045Z,97.71
2018-07-16T03:14:52.290Z,98.09
2018-07-16T03:15:52.532Z,98.28
2018-07-16T03:16:52.773Z,98.19
2018-07-16T03:17:53.048Z,97.90
2018-07-16T03:18:53.260Z,97.61
2018-07-16T03:19:53.505Z,98.00
2018-07-16T03:20:53.748Z,98.66
2018-07-16T03:21:53.989Z,98.76
2018-07-16T03:22:54.231Z,99.29
2018-07-16T03:23:54.474Z,99.19
2018-07-16T03:24:54.717Z,99.58
2018-07-16T03:25:54.962Z,99.00
2018-07-16T03:26:55.202Z,99.00
2018-07-16T03:27:55.454Z,98.71
2018-07-16T03:28:55.688Z,98.71
2018-07-16T03:29:55.930Z,98.43
2018-07-16T03:30:56.173Z,98.62
2018-07-16T03:31:56.417Z,98.71
2018-07-16T03:32:56.659Z,98.71
2018-07-16T03:33:56.902Z,98.24
2018-07-16T03:34:57.144Z,98.24
2018-07-16T03:35:57.386Z,96.80
2018-07-16T03:36:57.627Z,95.22
2018-07-16T03:37:57.870Z,95.31
2018-07-16T03:38:58.111Z,95.27
2018-07-16T03:39:58.351Z,95.46
2018-07-16T03:40:58.595Z,96.32
2018-07-16T03:41:58.839Z,97.56
2018-07-16T03:42:59.083Z,96.70
2018-07-16T03:43:59.332Z,96.13
2018-07-16T03:44:59.568Z,96.03
2018-07-16T03:45:59.812Z,95.56
2018-07-16T03:47:00.055Z,94.50
2018-07-16T03:48:00.311Z,97.28
2018-07-16T03:49:00.542Z,97.08
2018-07-16T03:50:00.784Z,96.66
2018-07-16T03:51:01.027Z,96.61
2018-07-16T03:52:01.268Z,97.28
2018-07-16T03:53:01.510Z,97.04
2018-07-16T03:54:01.753Z,97.61
2018-07-16T03:55:01.995Z,98.09
2018-07-16T03:56:02.244Z,98.09
2018-07-16T03:57:02.482Z,97.71
2018-07-16T03:58:02.722Z,97.90
2018-07-16T03:59:02.964Z,97.90
2018-07-16T04:00:03.207Z,98.47
2018-07-16T04:01:03.450Z,98.57
2018-07-16T04:02:03.694Z,98.71
2018-07-16T04:03:03.935Z,99.24
2018-07-16T04:04:04.176Z,98.62
2018-07-16T04:05:04.420Z,98.33
2018-07-16T04:06:04.662Z,98.71
2018-07-16T04:07:04.905Z,98.81
2018-07-16T04:08:05.148Z,98.33
2018-07-16T04:09:05.390Z,98.81
2018-07-16T04:10:05.633Z,98.62
2018-07-16T04:11:05.876Z,98.14
2018-07-16T04:12:06.117Z,98.62
2018-07-16T04:13:06.368Z,98.81
2018-07-16T04:14:06.606Z,98.33
2018-07-16T04:15:06.848Z,98.81
2018-07-16T04:16:07.091Z,98.57
2018-07-16T04:17:07.338Z,98.76
2018-07-16T04:18:07.580Z,98.38
2018-07-16T04:19:07.820Z,99.05
2018-07-16T04:20:08.066Z,98.38
2018-07-16T04:21:08.307Z,98.38
2018-07-16T04:22:08.553Z,98.28
2018-07-16T04:23:08.794Z,98.28
2018-07-16T04:24:09.037Z,98.86
2018-07-16T04:25:09.279Z,99.24
2018-07-16T04:26:09.523Z,98.28
2018-07-16T04:27:09.765Z,98.28
2018-07-16T04:28:10.009Z,98.05
2018-07-16T04:29:10.251Z,97.85
2018-07-16T04:30:10.495Z,98.05
2018-07-16T04:31:10.738Z,97.95
2018-07-16T04:32:10.981Z,98.14
2018-07-16T04:33:11.225Z,97.95
2018-07-16T04:34:11.469Z,97.56
2018-07-16T04:35:11.711Z,97.56
2018-07-16T04:36:11.955Z,97.85
2018-07-16T04:37:12.197Z,97.71
2018-07-16T04:38:12.439Z,97.52
2018-07-16T04:39:12.685Z,96.94
2018-07-16T04:40:12.925Z,96.94
2018-07-16T04:41:13.167Z,96.94
2018-07-16T04:42:13.413Z,96.37
2018-07-16T04:43:13.654Z,96.70
2018-07-16T04:44:13.896Z,96.13
2018-07-16T04:45:14.142Z,95.36
2018-07-16T04:46:14.389Z,95.75
2018-07-16T04:47:14.632Z,95.46
2018-07-16T04:48:14.875Z,95.65
2018-07-16T04:49:15.121Z,95.07
2018-07-16T04:50:15.363Z,95.36
2018-07-16T04:51:15.607Z,95.07
2018-07-16T04:52:15.849Z,95.21
2018-07-16T04:53:16.095Z,95.21
2018-07-16T04:54:16.337Z,94.83
2018-07-16T04:55:16.580Z,94.83
2018-07-16T04:56:16.909Z,94.83
2018-07-16T04:57:17.070Z,94.45
2018-07-16T04:58:17.311Z,94.54
2018-07-16T04:59:17.554Z,93.97
2018-07-16T05:00:17.801Z,94.74
2018-07-16T05:01:18.044Z,94.69
2018-07-16T05:02:18.287Z,93.82
2018-07-16T05:03:18.620Z,93.82
2018-07-16T05:04:18.777Z,93.63
2018-07-16T05:05:19.022Z,94.40
2018-07-16T05:06:19.264Z,94.31
2018-07-16T05:07:19.510Z,93.63
2018-07-16T05:08:19.752Z,93.73
2018-07-16T05:09:19.996Z,93.82
2018-07-16T05:10:20.242Z,92.81
2018-07-16T05:11:20.485Z,92.81
2018-07-16T05:12:20.732Z,92.05
2018-07-16T05:13:20.981Z,90.70
2018-07-16T05:14:21.223Z,90.51
2018-07-16T05:15:21.466Z,90.31
2018-07-16T05:16:21.710Z,90.22
2018-07-16T05:17:21.955Z,89.83
2018-07-16T05:18:22.328Z,89.64
2018-07-16T05:19:22.445Z,89.16
2018-07-16T05:20:22.734Z,88.68
2018-07-16T05:21:22.953Z,89.45
2018-07-16T05:22:23.197Z,88.97
2018-07-16T05:23:23.441Z,88.87
2018-07-16T05:24:23.688Z,89.45
2018-07-16T05:25:23.934Z,89.16
2018-07-16T05:26:24.176Z,88.63
2018-07-16T05:27:24.423Z,88.92
2018-07-16T05:28:24.666Z,88.44
2018-07-16T05:29:24.910Z,88.44
2018-07-16T05:30:25.154Z,88.24
2018-07-16T05:31:25.449Z,88.44
2018-07-16T05:32:25.899Z,88.53
2018-07-16T05:33:25.890Z,88.06
2018-07-16T05:34:26.134Z,88.15
2018-07-16T05:35:26.379Z,87.09
2018-07-16T05:36:26.624Z,87.86
2018-07-16T05:37:26.869Z,87.96
2018-07-16T05:38:27.113Z,88.06
2018-07-16T05:39:27.365Z,88.06
2018-07-16T05:40:27.603Z,86.18
2018-07-16T05:41:27.848Z,87.81
2018-07-16T05:42:28.095Z,86.75
2018-07-16T05:43:28.339Z,86.65
2018-07-16T05:44:28.585Z,84.44
2018-07-16T05:45:28.830Z,84.44
2018-07-16T05:46:29.074Z,84.06
2018-07-16T05:47:29.318Z,84.87
2018-07-16T05:48:29.562Z,84.97
2018-07-16T05:49:29.805Z,84.44
2018-07-16T05:50:30.053Z,84.87
2018-07-16T05:51:30.299Z,84.39
2018-07-16T05:52:30.545Z,84.67
2018-07-16T05:53:30.790Z,84.87
2018-07-16T05:54:31.035Z,84.29
2018-07-16T05:55:31.280Z,84.67
2018-07-16T05:56:31.526Z,85.93
2018-07-16T05:57:31.773Z,86.69
2018-07-16T05:58:32.019Z,86.22
2018-07-16T05:59:32.264Z,85.20
2018-07-16T06:00:32.510Z,84.33
2018-07-16T06:01:32.757Z,83.70
2018-07-16T06:02:33.001Z,81.68
2018-07-16T06:03:33.247Z,81.58
2018-07-16T06:04:33.493Z,81.39
2018-07-16T06:05:33.739Z,82.74
2018-07-16T06:06:33.982Z,83.51
2018-07-16T06:07:34.227Z,82.74
2018-07-16T06:08:34.473Z,82.20
2018-07-16T06:09:34.719Z,81.29
2018-07-16T06:10:34.967Z,82.68
2018-07-16T06:11:35.216Z,82.10
2018-07-16T06:12:35.462Z,82.29
2018-07-16T06:13:35.704Z,81.81
2018-07-16T06:14:35.973Z,80.66
2018-07-16T06:15:36.198Z,82.45
2018-07-16T06:16:36.443Z,82.26
2018-07-16T06:17:36.696Z,82.93
2018-07-16T06:18:36.939Z,81.96
2018-07-16T06:19:37.191Z,84.22
2018-07-16T06:20:37.437Z,83.84
2018-07-16T06:21:37.683Z,81.43
2018-07-16T06:22:37.930Z,80.41
2018-07-16T06:23:38.176Z,81.27
2018-07-16T06:24:38.422Z,81.57
2018-07-16T06:25:38.671Z,81.18
2018-07-16T06:26:38.913Z,80.69
2018-07-16T06:27:39.160Z,80.99
2018-07-16T06:28:39.410Z,80.89
2018-07-16T06:29:39.653Z,79.74
2018-07-16T06:30:39.898Z,82.43
2018-07-16T06:31:40.148Z,80.02
2018-07-16T06:32:40.392Z,80.79
2018-07-16T06:33:40.637Z,82.18
2018-07-16T06:34:40.882Z,81.41
2018-07-16T06:35:41.132Z,79.39
2018-07-16T06:36:41.378Z,78.61
2018-07-16T06:37:41.624Z,81.51
2018-07-16T06:38:41.874Z,79.14
2018-07-16T06:39:42.171Z,78.27
2018-07-16T06:40:42.586Z,77.01
2018-07-16T06:41:42.618Z,76.92
2018-07-16T06:42:42.856Z,76.53
2018-07-16T06:43:43.101Z,76.53
2018-07-16T06:44:43.349Z,77.78
2018-07-16T06:45:43.597Z,76.24
2018-07-16T06:46:43.843Z,75.95
2018-07-16T06:47:44.109Z,77.88
2018-07-16T06:48:44.336Z,78.75
2018-07-16T06:49:44.582Z,78.75
2018-07-16T06:50:44.830Z,79.33
2018-07-16T06:51:45.079Z,79.81
2018-07-16T06:52:45.323Z,78.46
2018-07-16T06:53:45.568Z,78.99
2018-07-16T06:54:45.815Z,77.83
2018-07-16T06:55:46.062Z,76.57
2018-07-16T06:56:46.312Z,76.76
2018-07-16T06:57:46.556Z,76.95
2018-07-16T06:58:46.804Z,76.95
2018-07-16T06:59:47.051Z,75.99
2018-07-16T07:00:47.298Z,73.86
2018-07-16T07:01:47.546Z,73.38
2018-07-16T07:02:47.793Z,74.73
2018-07-16T07:03:48.040Z,73.58
2018-07-16T07:04:48.289Z,72.84
2018-07-16T07:05:48.534Z,72.16
2018-07-16T07:06:48.785Z,71.45
2018-07-16T07:07:49.028Z,72.13
2018-07-16T07:08:49.279Z,71.64
2018-07-16T07:09:49.525Z,72.52
2018-07-16T07:10:49.771Z,72.74
2018-07-16T07:11:50.019Z,70.81
2018-07-16T07:12:50.268Z,72.84
2018-07-16T07:13:50.512Z,70.81
2018-07-16T07:14:50.759Z,71.48
2018-07-16T07:15:51.006Z,68.62
2018-07-16T07:16:51.255Z,68.24
2018-07-16T07:17:51.501Z,69.68
2018-07-16T07:18:51.750Z,68.88
2018-07-16T07:19:51.995Z,69.46
2018-07-16T07:20:52.242Z,68.33
2018-07-16T07:21:52.489Z,66.53
2018-07-16T07:22:52.736Z,63.08
2018-07-16T07:23:52.988Z,60.36
2018-07-16T07:24:53.234Z,57.83
2018-07-16T07:25:53.480Z,53.83
2018-07-16T07:26:53.728Z,50.12
2018-07-16T07:27:53.975Z,48.97
2018-07-16T07:28:54.223Z,51.31
2018-07-16T07:29:54.472Z,52.81
2018-07-16T07:30:54.721Z,53.75
2018-07-16T07:31:54.970Z,54.36
2018-07-16T07:32:55.219Z,51.14
2018-07-16T07:33:55.468Z,53.13
2018-07-16T07:34:55.734Z,51.04
2018-07-16T07:35:56.024Z,49.17
2018-07-16T07:36:56.213Z,48.49
2018-07-16T07:37:56.462Z,49.66
2018-07-16T07:38:56.716Z,49.05
2018-07-16T07:39:56.962Z,50.14
2018-07-16T07:40:57.210Z,49.95
2018-07-16T07:41:57.459Z,50.80
2018-07-16T07:42:57.712Z,50.92
2018-07-16T07:43:57.959Z,52.62
2018-07-16T07:44:58.208Z,52.55
2018-07-16T07:45:58.458Z,51.21
2018-07-16T07:46:58.707Z,50.14
2018-07-16T07:47:58.960Z,49.12
2018-07-16T07:48:59.208Z,47.73
2018-07-16T07:49:59.458Z,46.22
2018-07-16T07:50:59.709Z,44.90
2018-07-16T07:51:59.958Z,44.04
2018-07-16T07:53:00.209Z,43.10
2018-07-16T07:54:00.459Z,42.35
2018-07-16T07:55:01.065Z,41.82
2018-07-16T07:56:00.962Z,43.63
2018-07-16T07:57:01.225Z,42.40
2018-07-16T07:58:01.462Z,43.49
2018-07-16T07:59:01.715Z,41.15
2018-07-16T08:00:01.966Z,40.88
2018-07-16T08:01:02.214Z,41.35
2018-07-16T08:02:02.467Z,42.81
2018-07-16T08:03:02.717Z,40.88
2018-07-16T08:04:02.969Z,40.76
2018-07-16T08:05:03.222Z,40.86
2018-07-16T08:06:03.474Z,42.81
2018-07-16T08:07:03.726Z,43.10
2018-07-16T08:08:03.978Z,42.60
2018-07-16T08:09:04.232Z,43.16
2018-07-16T08:10:04.484Z,41.44
2018-07-16T08:11:04.737Z,42.36
2018-07-16T08:12:04.989Z,40.63
2018-07-16T08:13:05.241Z,40.33
2018-07-16T08:14:05.495Z,39.94
2018-07-16T08:15:05.747Z,40.19
2018-07-16T08:16:05.999Z,40.86
2018-07-16T08:17:06.252Z,42.11
2018-07-16T08:18:06.505Z,42.38
2018-07-16T08:19:06.758Z,45.44
2018-07-16T08:20:07.012Z,44.78
2018-07-16T08:21:07.313Z,43.90
2018-07-16T08:22:07.518Z,43.71
2018-07-16T08:23:07.770Z,43.73
2018-07-16T08:24:08.023Z,43.90
2018-07-16T08:25:08.275Z,43.85
2018-07-16T08:26:08.529Z,42.25
2018-07-16T08:27:08.781Z,43.92
2018-07-16T08:28:09.082Z,42.60
2018-07-16T08:29:09.287Z,43.55
2018-07-16T08:30:09.546Z,42.40
2018-07-16T08:31:09.790Z,41.27
2018-07-16T08:32:10.044Z,40.70
2018-07-16T08:33:10.295Z,39.86
2018-07-16T08:34:10.548Z,38.72
2018-07-16T08:35:10.806Z,38.53
2018-07-16T08:36:11.055Z,37.76
2018-07-16T08:37:11.306Z,38.53
2018-07-16T08:38:11.562Z,39.23
2018-07-16T08:39:11.878Z,41.27
2018-07-16T08:40:12.072Z,41.93
2018-07-16T08:41:12.328Z,41.17
2018-07-16T08:42:12.576Z,41.25
2018-07-16T08:43:12.827Z,41.49
2018-07-16T08:44:13.080Z,40.70
2018-07-16T08:45:13.333Z,44.24
2018-07-16T08:46:13.624Z,45.73
2018-07-16T08:47:13.841Z,43.75
2018-07-16T08:48:14.094Z,41.86
2018-07-16T08:49:14.349Z,41.96
2018-07-16T08:50:14.602Z,40.14
2018-07-16T08:51:14.852Z,40.01
2018-07-16T08:52:15.107Z,40.23
2018-07-16T08:53:15.359Z,39.29
2018-07-16T08:54:15.615Z,38.06
2018-07-16T08:55:15.866Z,37.01
2018-07-16T08:56:16.120Z,36.58
2018-07-16T08:57:16.376Z,41.02
2018-07-16T08:58:16.630Z,43.82
2018-07-16T08:59:16.905Z,44.17
2018-07-16T09:00:17.138Z,44.71
2018-07-16T09:01:17.392Z,46.86
2018-07-16T09:02:17.650Z,46.17
2018-07-16T09:03:17.902Z,45.50
2018-07-16T09:04:18.155Z,47.05
2018-07-16T09:05:18.411Z,46.03
2018-07-16T09:06:18.664Z,43.85
2018-07-16T09:07:18.915Z,42.54
2018-07-16T09:08:19.198Z,41.48
2018-07-16T09:09:19.423Z,41.72
2018-07-16T09:10:19.677Z,41.66
2018-07-16T09:11:20.002Z,45.08
2018-07-16T09:12:20.185Z,45.76
2018-07-16T09:13:20.520Z,46.30
2018-07-16T09:14:20.688Z,43.85
2018-07-16T09:15:20.945Z,42.35
2018-07-16T09:16:21.199Z,40.64
2018-07-16T09:17:21.450Z,38.33
2018-07-16T09:18:21.703Z,36.99
2018-07-16T09:19:21.957Z,35.75
2018-07-16T09:20:22.210Z,34.01
2018-07-16T09:21:22.463Z,34.74
2018-07-16T09:22:22.717Z,35.54
2018-07-16T09:23:22.975Z,34.97
2018-07-16T09:24:23.227Z,37.90
2018-07-16T09:25:23.535Z,38.49
2018-07-16T09:26:23.735Z,37.02
2018-07-16T09:27:23.987Z,40.25
2018-07-16T09:28:24.242Z,40.60
2018-07-16T09:29:24.496Z,39.47
2018-07-16T09:30:24.750Z,37.56
2018-07-16T09:31:25.005Z,36.68
2018-07-16T09:32:25.258Z,37.37
2018-07-16T09:33:25.513Z,39.49
2018-07-16T09:34:25.769Z,39.56
2018-07-16T09:35:26.022Z,37.37
2018-07-16T09:36:26.277Z,35.97
2018-07-16T09:37:26.537Z,36.82
2018-07-16T09:38:26.790Z,37.69
2018-07-16T09:39:27.044Z,37.33
2018-07-16T09:40:27.301Z,36.74
2018-07-16T09:41:27.554Z,35.58
2018-07-16T09:42:27.812Z,34.47
2018-07-16T09:43:28.063Z,33.25
2018-07-16T09:44:28.390Z,33.44
2018-07-16T09:45:28.573Z,33.61
2018-07-16T09:46:28.827Z,33.74
2018-07-16T09:47:29.083Z,31.97
2018-07-16T09:48:29.338Z,33.00
2018-07-16T09:49:29.594Z,32.33
2018-07-16T09:50:29.849Z,35.49
2018-07-16T09:51:30.105Z,35.80
2018-07-16T09:52:30.361Z,35.65
2018-07-16T09:53:30.616Z,38.35
2018-07-16T09:54:30.871Z,38.00
2018-07-16T09:55:31.127Z,37.49
2018-07-16T09:56:31.453Z,36.58
2018-07-16T09:57:31.642Z,35.21
2018-07-16T09:58:31.901Z,36.51
2018-07-16T09:59:32.156Z,37.37
2018-07-16T10:00:32.408Z,39.39
2018-07-16T10:01:32.666Z,40.35
2018-07-16T10:02:32.920Z,37.77
2018-07-16T10:03:33.177Z,38.26
2018-07-16T10:04:33.431Z,37.90
2018-07-16T10:05:33.689Z,39.64
2018-07-16T10:06:33.947Z,41.07
2018-07-16T10:07:34.199Z,39.80
2018-07-16T10:08:34.505Z,40.70
2018-07-16T10:09:34.712Z,41.95
2018-07-16T10:10:34.968Z,44.17
2018-07-16T10:11:35.222Z,44.46
2018-07-16T10:12:35.477Z,43.95
2018-07-16T10:13:35.733Z,44.62
2018-07-16T10:14:35.986Z,44.81
2018-07-16T10:15:36.240Z,44.87
2018-07-16T10:16:36.496Z,40.48
2018-07-16T10:17:36.750Z,37.98
2018-07-16T10:18:37.003Z,36.74
2018-07-16T10:19:37.258Z,35.50
2018-07-16T10:20:37.639Z,34.38
2018-07-16T10:21:37.766Z,33.23
2018-07-16T10:22:38.021Z,32.10
2018-07-16T10:23:38.274Z,30.83
2018-07-16T10:24:38.527Z,31.14
2018-07-16T10:25:38.782Z,29.96
2018-07-16T10:26:39.037Z,30.06
2018-07-16T10:27:39.295Z,31.35
2018-07-16T10:28:39.548Z,33.80
2018-07-16T10:29:39.802Z,31.87
2018-07-16T10:30:40.058Z,32.00
2018-07-16T10:31:40.314Z,32.00
2018-07-16T10:32:40.571Z,32.69
2018-07-16T10:33:40.845Z,31.97
2018-07-16T10:34:41.084Z,31.38
2018-07-16T10:35:41.340Z,30.98
2018-07-16T10:36:41.597Z,30.82
2018-07-16T10:37:41.852Z,31.14
2018-07-16T10:38:42.109Z,30.02
2018-07-16T10:39:42.374Z,29.35
2018-07-16T10:40:42.620Z,29.93
2018-07-16T10:41:42.876Z,29.35
2018-07-16T10:42:43.134Z,30.90
2018-07-16T10:43:43.389Z,30.62
2018-07-16T10:44:43.647Z,30.43
2018-07-16T10:45:43.907Z,31.64
2018-07-16T10:46:44.164Z,31.97
2018-07-16T10:47:44.418Z,33.23
2018-07-16T10:48:44.677Z,32.98
2018-07-16T10:49:44.970Z,32.87
2018-07-16T10:50:45.189Z,33.05
2018-07-16T10:51:45.445Z,33.29
2018-07-16T10:52:45.703Z,31.51
2018-07-16T10:53:45.958Z,32.07
2018-07-16T10:54:46.213Z,30.03
2018-07-16T10:55:46.473Z,30.05
2018-07-16T10:56:46.727Z,31.04
2018-07-16T10:57:46.985Z,30.80
2018-07-16T10:58:47.241Z,30.79
2018-07-16T10:59:47.502Z,30.79
2018-07-16T11:00:47.755Z,29.44
2018-07-16T11:01:48.014Z,29.52
2018-07-16T11:02:48.269Z,32.09
2018-07-16T11:03:48.530Z,32.53
2018-07-16T11:04:48.786Z,30.93
2018-07-16T11:05:49.050Z,29.47
2018-07-16T11:06:49.295Z,28.61
2018-07-16T11:07:49.551Z,28.64
2018-07-16T11:08:49.807Z,27.25
2018-07-16T11:09:50.066Z,27.33
2018-07-16T11:10:50.323Z,29.90
2018-07-16T11:11:50.580Z,31.28
2018-07-16T11:12:50.840Z,31.96
2018-07-16T11:13:51.098Z,33.90
2018-07-16T11:14:51.398Z,33.58
2018-07-16T11:15:51.611Z,35.19
2018-07-16T11:16:51.869Z,36.58
2018-07-16T11:17:52.128Z,39.39
2018-07-16T11:18:52.382Z,37.37
2018-07-16T11:19:52.638Z,35.45
2018-07-16T11:20:52.966Z,38.63
2018-07-16T11:21:53.153Z,39.39
2018-07-16T11:22:53.411Z,40.81
2018-07-16T11:23:53.666Z,41.36
2018-07-16T11:24:53.922Z,41.93
2018-07-16T11:25:54.180Z,42.68
2018-07-16T11:26:54.433Z,43.85
2018-07-16T11:27:54.688Z,43.48
2018-07-16T11:28:54.941Z,43.36
2018-07-16T11:29:55.196Z,44.24
2018-07-16T11:30:55.452Z,44.04
2018-07-16T11:31:55.703Z,44.43
2018-07-16T11:32:55.957Z,44.94
2018-07-16T11:33:56.211Z,42.99
2018-07-16T11:34:56.464Z,43.29
2018-07-16T11:35:56.722Z,43.95
2018-07-16T11:36:56.972Z,42.05
2018-07-16T11:37:57.223Z,37.83
2018-07-16T11:38:57.476Z,36.96
2018-07-16T11:39:57.727Z,37.34
2018-07-16T11:40:57.982Z,36.91
2018-07-16T11:41:58.235Z,37.89
2018-07-16T11:42:58.487Z,37.11
2018-07-16T11:43:58.738Z,39.23
2018-07-16T11:44:58.992Z,39.53
2018-07-16T11:45:59.305Z,39.47
2018-07-16T11:46:59.502Z,38.69
2018-07-16T11:47:59.751Z,38.79
2018-07-16T11:49:00.007Z,38.51
2018-07-16T11:50:00.259Z,37.63
2018-07-16T11:51:00.510Z,36.41
2018-07-16T11:52:00.765Z,35.49
2018-07-16T11:53:01.019Z,33.54
2018-07-16T11:54:01.270Z,33.23
2018-07-16T11:55:01.523Z,33.85
2018-07-16T11:56:01.777Z,33.67
2018-07-16T11:57:02.031Z,32.53
2018-07-16T11:58:02.285Z,32.01
2018-07-16T11:59:02.680Z,33.12
2018-07-16T12:00:02.792Z,31.85
2018-07-16T12:01:03.045Z,31.85
2018-07-16T12:02:03.299Z,31.67
2018-07-16T12:03:03.555Z,31.77
2018-07-16T12:04:03.808Z,31.76
2018-07-16T12:05:04.096Z,31.64
2018-07-16T12:06:04.320Z,31.74
2018-07-16T12:07:04.574Z,31.36
2018-07-16T12:08:04.828Z,31.09
2018-07-16T12:09:05.084Z,29.89
2018-07-16T12:10:05.339Z,31.67
2018-07-16T12:11:05.595Z,31.03
2018-07-16T12:12:05.849Z,28.79
2018-07-16T12:13:06.104Z,28.31
2018-07-16T12:14:06.358Z,28.31
2018-07-16T12:15:06.616Z,27.33
2018-07-16T12:16:06.870Z,28.37
2018-07-16T12:17:07.126Z,32.50
2018-07-16T12:18:07.398Z,31.99
2018-07-16T12:19:07.679Z,31.19
2018-07-16T12:20:07.894Z,30.90
2018-07-16T12:21:08.149Z,30.76
2018-07-16T12:22:08.406Z,29.33
2018-07-16T12:23:08.662Z,27.97
2018-07-16T12:24:08.916Z,28.11
2018-07-16T12:25:09.176Z,27.36
2018-07-16T12:26:09.428Z,25.38
2018-07-16T12:27:09.682Z,25.63
2018-07-16T12:28:09.938Z,26.45
2018-07-16T12:29:10.194Z,24.71
2018-07-16T12:30:10.452Z,23.98
2018-07-16T12:31:10.709Z,23.11
2018-07-16T12:32:10.965Z,26.24
2018-07-16T12:33:11.227Z,26.39
2018-07-16T12:34:11.479Z,26.85
2018-07-16T12:35:11.734Z,28.50
2018-07-16T12:36:11.992Z,31.12
2018-07-16T12:37:12.249Z,32.28
2018-07-16T12:38:12.505Z,32.46
2018-07-16T12:39:12.762Z,32.15
2018-07-16T12:40:13.019Z,32.61
2018-07-16T12:41:13.275Z,32.50
2018-07-16T12:42:13.535Z,33.87
2018-07-16T12:43:13.789Z,34.36
2018-07-16T12:44:14.046Z,33.18
2018-07-16T12:45:14.302Z,33.75
2018-07-16T12:46:14.559Z,34.05
2018-07-16T12:47:14.815Z,35.55
2018-07-16T12:48:15.108Z,40.37
2018-07-16T12:49:15.327Z,42.25
2018-07-16T12:50:15.585Z,43.58
2018-07-16T12:51:15.840Z,44.65
2018-07-16T12:52:16.097Z,44.74
2018-07-16T12:53:16.352Z,45.31
2018-07-16T12:54:16.606Z,45.14
2018-07-16T12:55:16.860Z,44.86